Waldeck, Texas
Current Conditions -  °F | °C
As of 4:55 PM on Tuesday 27 Jan 2015 (Local Time) from KRWV Reporting Station
Clear Clear  
Wind Chill: 77°   Ceiling: Unl
Heat Index: 77°   Visibility: 10mi
Dew Point: 36°   Wind: 0mph
Humidity: 22%   Direction: NA
Pressure: 30.14"   Gusts: NA
Location:  30.2279°N, 96.7713°W
Report Text: KRWV 272255Z AUTO 00000KT 10SM CLR 25/02 A3014 RMK AO2
Loading
Personal Weather Stations






























Interactive Weather Map New forecast layout! Learn more

10-Day Weather Forecast

Advertisements
Track Severe Weather on mobile